sensor_id;sensor_type;location;lat;lon;timestamp;P1;durP1;ratioP1;P2;durP2;ratioP2
26319;SDS011;14024;52.226;5.200;2023-07-22T00:02:11;21.50;;;10.98;;
26319;SDS011;14024;52.226;5.200;2023-07-22T00:04:37;19.35;;;9.82;;
26319;SDS011;14024;52.226;5.200;2023-07-22T00:07:04;21.95;;;10.65;;
26319;SDS011;14024;52.226;5.200;2023-07-22T00:09:32;24.25;;;10.68;;
26319;SDS011;14024;52.226;5.200;2023-07-22T00:12:01;18.75;;;10.07;;
26319;SDS011;14024;52.226;5.200;2023-07-22T00:14:27;21.33;;;10.68;;
26319;SDS011;14024;52.226;5.200;2023-07-22T00:16:53;24.92;;;11.00;;
26319;SDS011;14024;52.226;5.200;2023-07-22T00:19:19;23.58;;;11.00;;
26319;SDS011;14024;52.226;5.200;2023-07-22T00:21:45;19.52;;;10.25;;
26319;SDS011;14024;52.226;5.200;2023-07-22T00:24:11;22.58;;;11.57;;
26319;SDS011;14024;52.226;5.200;2023-07-22T00:26:36;20.73;;;11.35;;
26319;SDS011;14024;52.226;5.200;2023-07-22T00:29:03;25.70;;;11.88;;
26319;SDS011;14024;52.226;5.200;2023-07-22T00:31:29;22.38;;;11.93;;
26319;SDS011;14024;52.226;5.200;2023-07-22T00:33:56;22.40;;;11.63;;
26319;SDS011;14024;52.226;5.200;2023-07-22T00:36:22;24.27;;;12.50;;
26319;SDS011;14024;52.226;5.200;2023-07-22T00:38:48;25.88;;;12.35;;
26319;SDS011;14024;52.226;5.200;2023-07-22T00:41:14;24.85;;;11.88;;
26319;SDS011;14024;52.226;5.200;2023-07-22T00:43:40;29.63;;;12.45;;
26319;SDS011;14024;52.226;5.200;2023-07-22T00:46:06;25.50;;;13.25;;
26319;SDS011;14024;52.226;5.200;2023-07-22T00:48:32;24.75;;;13.98;;
26319;SDS011;14024;52.226;5.200;2023-07-22T00:50:58;31.05;;;15.40;;
26319;SDS011;14024;52.226;5.200;2023-07-22T00:53:24;31.88;;;14.23;;
26319;SDS011;14024;52.226;5.200;2023-07-22T00:55:50;30.05;;;15.73;;
26319;SDS011;14024;52.226;5.200;2023-07-22T00:58:16;29.70;;;14.02;;
26319;SDS011;14024;52.226;5.200;2023-07-22T01:00:42;27.92;;;14.35;;
26319;SDS011;14024;52.226;5.200;2023-07-22T01:03:08;29.50;;;13.93;;
26319;SDS011;14024;52.226;5.200;2023-07-22T01:05:35;29.70;;;13.85;;
26319;SDS011;14024;52.226;5.200;2023-07-22T01:08:02;32.45;;;16.10;;
26319;SDS011;14024;52.226;5.200;2023-07-22T01:10:29;29.38;;;15.68;;
26319;SDS011;14024;52.226;5.200;2023-07-22T01:12:55;29.17;;;15.18;;
26319;SDS011;14024;52.226;5.200;2023-07-22T01:15:22;34.67;;;16.00;;
26319;SDS011;14024;52.226;5.200;2023-07-22T01:17:48;33.80;;;15.95;;
26319;SDS011;14024;52.226;5.200;2023-07-22T01:20:15;33.00;;;16.10;;
26319;SDS011;14024;52.226;5.200;2023-07-22T01:22:49;32.95;;;16.38;;
26319;SDS011;14024;52.226;5.200;2023-07-22T01:25:16;29.58;;;15.55;;
26319;SDS011;14024;52.226;5.200;2023-07-22T01:27:43;30.73;;;16.23;;
26319;SDS011;14024;52.226;5.200;2023-07-22T01:30:09;35.03;;;15.90;;
26319;SDS011;14024;52.226;5.200;2023-07-22T01:32:35;32.00;;;16.27;;
26319;SDS011;14024;52.226;5.200;2023-07-22T01:35:01;31.27;;;15.23;;
26319;SDS011;14024;52.226;5.200;2023-07-22T01:37:27;39.53;;;16.92;;
26319;SDS011;14024;52.226;5.200;2023-07-22T01:39:53;33.25;;;15.95;;
26319;SDS011;14024;52.226;5.200;2023-07-22T01:42:23;31.02;;;15.55;;
26319;SDS011;14024;52.226;5.200;2023-07-22T01:44:49;37.08;;;17.23;;
26319;SDS011;14024;52.226;5.200;2023-07-22T01:47:15;34.30;;;16.83;;
26319;SDS011;14024;52.226;5.200;2023-07-22T01:49:41;32.60;;;15.35;;
26319;SDS011;14024;52.226;5.200;2023-07-22T01:52:08;31.27;;;15.82;;
26319;SDS011;14024;52.226;5.200;2023-07-22T01:54:34;33.50;;;15.50;;
26319;SDS011;14024;52.226;5.200;2023-07-22T01:57:04;34.55;;;15.88;;
26319;SDS011;14024;52.226;5.200;2023-07-22T01:59:30;34.15;;;16.05;;
26319;SDS011;14024;52.226;5.200;2023-07-22T02:01:56;26.77;;;15.52;;
26319;SDS011;14024;52.226;5.200;2023-07-22T02:04:22;27.88;;;15.05;;
26319;SDS011;14024;52.226;5.200;2023-07-22T02:06:48;26.75;;;14.63;;
26319;SDS011;14024;52.226;5.200;2023-07-22T02:09:14;32.88;;;15.10;;
26319;SDS011;14024;52.226;5.200;2023-07-22T02:11:40;29.52;;;14.95;;
26319;SDS011;14024;52.226;5.200;2023-07-22T02:14:06;32.50;;;14.82;;
26319;SDS011;14024;52.226;5.200;2023-07-22T02:16:33;31.58;;;15.80;;
26319;SDS011;14024;52.226;5.200;2023-07-22T02:19:00;29.73;;;14.48;;
26319;SDS011;14024;52.226;5.200;2023-07-22T02:21:26;29.40;;;14.63;;
26319;SDS011;14024;52.226;5.200;2023-07-22T02:23:53;26.65;;;13.23;;
26319;SDS011;14024;52.226;5.200;2023-07-22T02:26:19;27.25;;;14.50;;
26319;SDS011;14024;52.226;5.200;2023-07-22T02:28:45;29.40;;;15.60;;
26319;SDS011;14024;52.226;5.200;2023-07-22T02:31:11;28.10;;;14.93;;
26319;SDS011;14024;52.226;5.200;2023-07-22T02:33:37;30.63;;;15.63;;
26319;SDS011;14024;52.226;5.200;2023-07-22T02:36:04;30.33;;;15.32;;
26319;SDS011;14024;52.226;5.200;2023-07-22T02:38:30;31.25;;;15.15;;
26319;SDS011;14024;52.226;5.200;2023-07-22T02:41:02;30.88;;;15.00;;
26319;SDS011;14024;52.226;5.200;2023-07-22T02:43:30;28.05;;;15.32;;
26319;SDS011;14024;52.226;5.200;2023-07-22T02:45:56;33.45;;;15.68;;
26319;SDS011;14024;52.226;5.200;2023-07-22T02:48:22;31.02;;;15.75;;
26319;SDS011;14024;52.226;5.200;2023-07-22T02:50:48;33.17;;;16.40;;
26319;SDS011;14024;52.226;5.200;2023-07-22T02:53:15;32.47;;;16.00;;
26319;SDS011;14024;52.226;5.200;2023-07-22T02:55:41;33.40;;;16.88;;
26319;SDS011;14024;52.226;5.200;2023-07-22T02:58:07;38.20;;;16.23;;
26319;SDS011;14024;52.226;5.200;2023-07-22T03:00:33;33.20;;;16.08;;
26319;SDS011;14024;52.226;5.200;2023-07-22T03:02:59;31.70;;;15.10;;
26319;SDS011;14024;52.226;5.200;2023-07-22T03:05:30;32.05;;;15.65;;
26319;SDS011;14024;52.226;5.200;2023-07-22T03:07:57;32.25;;;15.27;;
26319;SDS011;14024;52.226;5.200;2023-07-22T03:10:23;25.33;;;13.77;;
26319;SDS011;14024;52.226;5.200;2023-07-22T03:12:53;34.58;;;15.52;;
26319;SDS011;14024;52.226;5.200;2023-07-22T03:15:20;28.38;;;15.40;;
26319;SDS011;14024;52.226;5.200;2023-07-22T03:17:46;28.75;;;14.80;;
26319;SDS011;14024;52.226;5.200;2023-07-22T03:20:12;31.40;;;15.13;;
26319;SDS011;14024;52.226;5.200;2023-07-22T03:22:44;30.33;;;14.35;;
26319;SDS011;14024;52.226;5.200;2023-07-22T03:25:11;29.88;;;15.02;;
26319;SDS011;14024;52.226;5.200;2023-07-22T03:27:37;29.63;;;14.13;;
26319;SDS011;14024;52.226;5.200;2023-07-22T03:30:04;30.88;;;14.80;;
26319;SDS011;14024;52.226;5.200;2023-07-22T03:32:33;29.15;;;14.90;;
26319;SDS011;14024;52.226;5.200;2023-07-22T03:35:00;32.50;;;15.43;;
26319;SDS011;14024;52.226;5.200;2023-07-22T03:37:26;31.58;;;14.88;;
26319;SDS011;14024;52.226;5.200;2023-07-22T03:39:53;33.03;;;14.95;;
26319;SDS011;14024;52.226;5.200;2023-07-22T03:42:19;32.97;;;15.10;;
26319;SDS011;14024;52.226;5.200;2023-07-22T03:44:45;30.25;;;15.18;;
26319;SDS011;14024;52.226;5.200;2023-07-22T03:47:11;27.38;;;13.32;;
26319;SDS011;14024;52.226;5.200;2023-07-22T03:49:37;29.48;;;14.57;;
26319;SDS011;14024;52.226;5.200;2023-07-22T03:52:03;28.95;;;14.65;;
26319;SDS011;14024;52.226;5.200;2023-07-22T03:54:29;28.00;;;13.18;;
26319;SDS011;14024;52.226;5.200;2023-07-22T03:56:55;28.48;;;13.52;;
26319;SDS011;14024;52.226;5.200;2023-07-22T03:59:21;25.10;;;13.05;;
26319;SDS011;14024;52.226;5.200;2023-07-22T04:01:47;27.58;;;13.35;;
26319;SDS011;14024;52.226;5.200;2023-07-22T04:04:13;27.52;;;14.10;;
26319;SDS011;14024;52.226;5.200;2023-07-22T04:06:39;26.70;;;13.30;;
26319;SDS011;14024;52.226;5.200;2023-07-22T04:09:06;31.10;;;13.93;;
26319;SDS011;14024;52.226;5.200;2023-07-22T04:11:33;25.42;;;13.30;;
26319;SDS011;14024;52.226;5.200;2023-07-22T04:13:59;28.27;;;13.32;;
26319;SDS011;14024;52.226;5.200;2023-07-22T04:16:25;27.20;;;12.77;;
26319;SDS011;14024;52.226;5.200;2023-07-22T04:18:51;27.40;;;13.43;;
26319;SDS011;14024;52.226;5.200;2023-07-22T04:21:17;27.55;;;12.98;;
26319;SDS011;14024;52.226;5.200;2023-07-22T04:23:43;23.90;;;12.98;;
26319;SDS011;14024;52.226;5.200;2023-07-22T04:26:10;24.05;;;12.38;;
26319;SDS011;14024;52.226;5.200;2023-07-22T04:28:36;24.95;;;12.25;;
26319;SDS011;14024;52.226;5.200;2023-07-22T04:31:02;27.42;;;12.73;;
26319;SDS011;14024;52.226;5.200;2023-07-22T04:33:29;23.80;;;12.48;;
26319;SDS011;14024;52.226;5.200;2023-07-22T04:35:58;25.95;;;11.63;;
26319;SDS011;14024;52.226;5.200;2023-07-22T04:38:25;26.42;;;12.60;;
26319;SDS011;14024;52.226;5.200;2023-07-22T04:40:51;21.83;;;11.27;;
26319;SDS011;14024;52.226;5.200;2023-07-22T04:43:17;22.52;;;11.80;;
26319;SDS011;14024;52.226;5.200;2023-07-22T04:45:46;22.35;;;10.77;;
26319;SDS011;14024;52.226;5.200;2023-07-22T04:48:13;20.27;;;10.10;;
26319;SDS011;14024;52.226;5.200;2023-07-22T04:50:40;21.90;;;9.73;;
26319;SDS011;14024;52.226;5.200;2023-07-22T04:53:07;19.35;;;9.90;;
26319;SDS011;14024;52.226;5.200;2023-07-22T04:55:33;19.40;;;11.07;;
26319;SDS011;14024;52.226;5.200;2023-07-22T04:57:59;17.92;;;9.48;;
26319;SDS011;14024;52.226;5.200;2023-07-22T05:00:25;24.75;;;10.35;;
26319;SDS011;14024;52.226;5.200;2023-07-22T05:02:51;18.55;;;9.98;;
26319;SDS011;14024;52.226;5.200;2023-07-22T05:05:20;17.83;;;9.75;;
26319;SDS011;14024;52.226;5.200;2023-07-22T05:07:46;20.88;;;9.60;;
26319;SDS011;14024;52.226;5.200;2023-07-22T05:10:14;23.02;;;10.35;;
26319;SDS011;14024;52.226;5.200;2023-07-22T05:12:41;19.15;;;9.27;;
26319;SDS011;14024;52.226;5.200;2023-07-22T05:15:07;17.52;;;9.73;;
26319;SDS011;14024;52.226;5.200;2023-07-22T05:17:33;21.67;;;10.10;;
26319;SDS011;14024;52.226;5.200;2023-07-22T05:19:59;21.25;;;10.70;;
26319;SDS011;14024;52.226;5.200;2023-07-22T05:22:25;24.13;;;10.88;;
26319;SDS011;14024;52.226;5.200;2023-07-22T05:24:51;25.52;;;11.35;;
26319;SDS011;14024;52.226;5.200;2023-07-22T05:27:17;24.02;;;11.25;;
26319;SDS011;14024;52.226;5.200;2023-07-22T05:29:44;18.55;;;10.52;;
26319;SDS011;14024;52.226;5.200;2023-07-22T05:32:10;26.63;;;11.93;;
26319;SDS011;14024;52.226;5.200;2023-07-22T05:34:36;20.65;;;12.10;;
26319;SDS011;14024;52.226;5.200;2023-07-22T05:37:02;27.35;;;12.57;;
26319;SDS011;14024;52.226;5.200;2023-07-22T05:39:28;25.33;;;11.68;;
26319;SDS011;14024;52.226;5.200;2023-07-22T05:41:54;24.35;;;11.63;;
26319;SDS011;14024;52.226;5.200;2023-07-22T05:44:20;25.15;;;12.15;;
26319;SDS011;14024;52.226;5.200;2023-07-22T05:46:47;25.25;;;11.55;;
26319;SDS011;14024;52.226;5.200;2023-07-22T05:49:13;27.52;;;12.23;;
26319;SDS011;14024;52.226;5.200;2023-07-22T05:51:39;29.70;;;11.95;;
26319;SDS011;14024;52.226;5.200;2023-07-22T05:54:05;26.08;;;11.88;;
26319;SDS011;14024;52.226;5.200;2023-07-22T05:56:31;25.15;;;11.93;;
26319;SDS011;14024;52.226;5.200;2023-07-22T05:58:57;28.02;;;12.90;;
26319;SDS011;14024;52.226;5.200;2023-07-22T06:01:23;22.63;;;12.32;;
26319;SDS011;14024;52.226;5.200;2023-07-22T06:03:49;32.40;;;13.52;;
26319;SDS011;14024;52.226;5.200;2023-07-22T06:06:15;30.25;;;13.77;;
26319;SDS011;14024;52.226;5.200;2023-07-22T06:08:41;29.38;;;14.43;;
26319;SDS011;14024;52.226;5.200;2023-07-22T06:11:08;34.92;;;13.48;;
26319;SDS011;14024;52.226;5.200;2023-07-22T06:13:35;32.50;;;15.25;;
26319;SDS011;14024;52.226;5.200;2023-07-22T06:16:00;29.17;;;14.18;;
26319;SDS011;14024;52.226;5.200;2023-07-22T06:18:27;31.98;;;15.30;;
26319;SDS011;14024;52.226;5.200;2023-07-22T06:20:53;34.33;;;16.42;;
26319;SDS011;14024;52.226;5.200;2023-07-22T06:23:19;38.38;;;15.70;;
26319;SDS011;14024;52.226;5.200;2023-07-22T06:25:45;33.72;;;16.35;;
26319;SDS011;14024;52.226;5.200;2023-07-22T06:28:11;37.88;;;16.33;;
26319;SDS011;14024;52.226;5.200;2023-07-22T06:30:37;38.38;;;17.23;;
26319;SDS011;14024;52.226;5.200;2023-07-22T06:33:03;38.15;;;16.92;;
26319;SDS011;14024;52.226;5.200;2023-07-22T06:35:29;40.05;;;17.55;;
26319;SDS011;14024;52.226;5.200;2023-07-22T06:37:55;39.42;;;17.33;;
26319;SDS011;14024;52.226;5.200;2023-07-22T06:40:21;47.97;;;19.13;;
26319;SDS011;14024;52.226;5.200;2023-07-22T06:42:47;44.78;;;17.40;;
26319;SDS011;14024;52.226;5.200;2023-07-22T06:45:13;39.78;;;15.75;;
26319;SDS011;14024;52.226;5.200;2023-07-22T06:47:39;36.15;;;17.00;;
26319;SDS011;14024;52.226;5.200;2023-07-22T06:50:05;39.53;;;17.92;;
26319;SDS011;14024;52.226;5.200;2023-07-22T06:52:32;43.22;;;16.65;;
26319;SDS011;14024;52.226;5.200;2023-07-22T06:54:58;35.95;;;16.63;;
26319;SDS011;14024;52.226;5.200;2023-07-22T06:57:24;38.25;;;18.63;;
26319;SDS011;14024;52.226;5.200;2023-07-22T06:59:53;37.83;;;17.80;;
26319;SDS011;14024;52.226;5.200;2023-07-22T07:02:20;42.03;;;17.38;;
26319;SDS011;14024;52.226;5.200;2023-07-22T07:04:46;45.08;;;17.27;;
26319;SDS011;14024;52.226;5.200;2023-07-22T07:07:12;41.60;;;16.73;;
26319;SDS011;14024;52.226;5.200;2023-07-22T07:09:38;39.60;;;18.23;;
26319;SDS011;14024;52.226;5.200;2023-07-22T07:12:05;40.40;;;18.38;;
26319;SDS011;14024;52.226;5.200;2023-07-22T07:14:32;38.55;;;17.00;;
26319;SDS011;14024;52.226;5.200;2023-07-22T07:16:58;39.10;;;16.92;;
26319;SDS011;14024;52.226;5.200;2023-07-22T07:19:24;40.80;;;17.42;;
26319;SDS011;14024;52.226;5.200;2023-07-22T07:21:50;36.53;;;16.17;;
26319;SDS011;14024;52.226;5.200;2023-07-22T07:24:17;35.08;;;16.55;;
26319;SDS011;14024;52.226;5.200;2023-07-22T07:26:43;32.22;;;15.82;;
26319;SDS011;14024;52.226;5.200;2023-07-22T07:29:09;39.05;;;16.88;;
26319;SDS011;14024;52.226;5.200;2023-07-22T07:31:35;36.35;;;16.23;;
26319;SDS011;14024;52.226;5.200;2023-07-22T07:34:01;36.58;;;15.65;;
26319;SDS011;14024;52.226;5.200;2023-07-22T07:36:27;33.83;;;15.32;;
26319;SDS011;14024;52.226;5.200;2023-07-22T07:38:53;34.10;;;15.70;;
26319;SDS011;14024;52.226;5.200;2023-07-22T07:41:20;39.33;;;16.42;;
26319;SDS011;14024;52.226;5.200;2023-07-22T07:43:46;36.35;;;15.52;;
26319;SDS011;14024;52.226;5.200;2023-07-22T07:48:38;30.65;;;15.43;;
26319;SDS011;14024;52.226;5.200;2023-07-22T07:51:04;33.67;;;15.32;;
26319;SDS011;14024;52.226;5.200;2023-07-22T07:53:31;36.72;;;14.88;;
26319;SDS011;14024;52.226;5.200;2023-07-22T07:55:57;35.15;;;15.45;;
26319;SDS011;14024;52.226;5.200;2023-07-22T07:58:23;28.55;;;14.55;;
26319;SDS011;14024;52.226;5.200;2023-07-22T08:00:49;32.95;;;15.70;;
26319;SDS011;14024;52.226;5.200;2023-07-22T08:03:15;34.28;;;15.52;;
26319;SDS011;14024;52.226;5.200;2023-07-22T08:05:41;31.02;;;14.70;;
26319;SDS011;14024;52.226;5.200;2023-07-22T08:08:07;33.80;;;15.15;;
26319;SDS011;14024;52.226;5.200;2023-07-22T08:10:33;33.08;;;14.82;;
26319;SDS011;14024;52.226;5.200;2023-07-22T08:12:59;29.00;;;14.80;;
26319;SDS011;14024;52.226;5.200;2023-07-22T08:15:25;27.58;;;14.98;;
26319;SDS011;14024;52.226;5.200;2023-07-22T08:17:51;29.00;;;13.98;;
26319;SDS011;14024;52.226;5.200;2023-07-22T08:20:17;34.55;;;16.13;;
26319;SDS011;14024;52.226;5.200;2023-07-22T08:22:44;30.58;;;14.75;;
26319;SDS011;14024;52.226;5.200;2023-07-22T08:25:10;26.92;;;14.90;;
26319;SDS011;14024;52.226;5.200;2023-07-22T08:27:37;33.22;;;14.95;;
26319;SDS011;14024;52.226;5.200;2023-07-22T08:30:03;33.85;;;14.98;;
26319;SDS011;14024;52.226;5.200;2023-07-22T08:32:29;24.33;;;12.65;;
26319;SDS011;14024;52.226;5.200;2023-07-22T08:34:55;25.52;;;12.52;;
26319;SDS011;14024;52.226;5.200;2023-07-22T08:37:21;27.83;;;13.88;;
26319;SDS011;14024;52.226;5.200;2023-07-22T08:39:47;27.25;;;14.02;;
26319;SDS011;14024;52.226;5.200;2023-07-22T08:42:13;22.40;;;13.80;;
26319;SDS011;14024;52.226;5.200;2023-07-22T08:44:42;24.85;;;13.80;;
26319;SDS011;14024;52.226;5.200;2023-07-22T08:47:10;32.05;;;15.50;;
26319;SDS011;14024;52.226;5.200;2023-07-22T08:49:41;28.70;;;15.38;;
26319;SDS011;14024;52.226;5.200;2023-07-22T08:52:10;31.15;;;16.48;;
26319;SDS011;14024;52.226;5.200;2023-07-22T08:54:37;33.08;;;15.65;;
26319;SDS011;14024;52.226;5.200;2023-07-22T08:57:03;27.33;;;15.88;;
26319;SDS011;14024;52.226;5.200;2023-07-22T08:59:29;32.25;;;15.35;;
26319;SDS011;14024;52.226;5.200;2023-07-22T09:01:56;29.63;;;15.23;;
26319;SDS011;14024;52.226;5.200;2023-07-22T09:04:22;25.70;;;14.88;;
26319;SDS011;14024;52.226;5.200;2023-07-22T09:06:48;26.13;;;14.77;;
26319;SDS011;14024;52.226;5.200;2023-07-22T09:09:15;24.67;;;13.23;;
26319;SDS011;14024;52.226;5.200;2023-07-22T09:11:41;31.27;;;15.38;;
26319;SDS011;14024;52.226;5.200;2023-07-22T09:14:07;28.10;;;15.65;;
26319;SDS011;14024;52.226;5.200;2023-07-22T09:16:33;24.05;;;14.10;;
26319;SDS011;14024;52.226;5.200;2023-07-22T09:19:00;24.88;;;14.82;;
26319;SDS011;14024;52.226;5.200;2023-07-22T09:21:29;27.63;;;14.25;;
26319;SDS011;14024;52.226;5.200;2023-07-22T09:23:55;22.90;;;13.60;;
26319;SDS011;14024;52.226;5.200;2023-07-22T09:26:21;24.15;;;12.38;;
26319;SDS011;14024;52.226;5.200;2023-07-22T09:28:54;20.63;;;13.15;;
26319;SDS011;14024;52.226;5.200;2023-07-22T09:31:20;20.92;;;12.27;;
26319;SDS011;14024;52.226;5.200;2023-07-22T09:33:48;18.77;;;10.63;;
26319;SDS011;14024;52.226;5.200;2023-07-22T09:36:15;21.67;;;11.13;;
26319;SDS011;14024;52.226;5.200;2023-07-22T09:38:41;18.38;;;10.82;;
26319;SDS011;14024;52.226;5.200;2023-07-22T09:41:07;18.20;;;11.13;;
26319;SDS011;14024;52.226;5.200;2023-07-22T09:43:37;18.80;;;10.52;;
26319;SDS011;14024;52.226;5.200;2023-07-22T09:46:10;15.05;;;9.68;;
26319;SDS011;14024;52.226;5.200;2023-07-22T09:48:43;17.38;;;8.73;;
26319;SDS011;14024;52.226;5.200;2023-07-22T09:51:16;14.88;;;9.25;;
26319;SDS011;14024;52.226;5.200;2023-07-22T09:53:46;15.48;;;9.23;;
26319;SDS011;14024;52.226;5.200;2023-07-22T09:56:12;18.15;;;8.55;;
26319;SDS011;14024;52.226;5.200;2023-07-22T09:58:38;11.13;;;7.30;;
26319;SDS011;14024;52.226;5.200;2023-07-22T10:01:05;15.75;;;8.52;;
26319;SDS011;14024;52.226;5.200;2023-07-22T10:03:31;16.65;;;8.30;;
26319;SDS011;14024;52.226;5.200;2023-07-22T10:05:58;16.80;;;8.45;;
26319;SDS011;14024;52.226;5.200;2023-07-22T10:08:25;17.45;;;8.90;;
26319;SDS011;14024;52.226;5.200;2023-07-22T10:11:01;16.77;;;7.78;;
26319;SDS011;14024;52.226;5.200;2023-07-22T10:13:29;13.35;;;7.80;;
26319;SDS011;14024;52.226;5.200;2023-07-22T10:15:55;19.27;;;8.13;;
26319;SDS011;14024;52.226;5.200;2023-07-22T10:18:21;14.40;;;8.23;;
26319;SDS011;14024;52.226;5.200;2023-07-22T10:20:49;14.55;;;8.02;;
26319;SDS011;14024;52.226;5.200;2023-07-22T10:23:15;15.25;;;7.95;;
26319;SDS011;14024;52.226;5.200;2023-07-22T10:25:41;18.40;;;8.70;;
26319;SDS011;14024;52.226;5.200;2023-07-22T10:28:08;16.20;;;7.90;;
26319;SDS011;14024;52.226;5.200;2023-07-22T10:30:34;14.27;;;7.95;;
26319;SDS011;14024;52.226;5.200;2023-07-22T10:33:00;12.98;;;7.75;;
26319;SDS011;14024;52.226;5.200;2023-07-22T10:37:55;12.68;;;7.05;;
26319;SDS011;14024;52.226;5.200;2023-07-22T10:40:29;14.18;;;6.43;;
26319;SDS011;14024;52.226;5.200;2023-07-22T10:42:58;15.20;;;7.15;;
26319;SDS011;14024;52.226;5.200;2023-07-22T10:45:25;25.50;;;6.25;;
26319;SDS011;14024;52.226;5.200;2023-07-22T10:48:02;6.90;;;5.13;;
26319;SDS011;14024;52.226;5.200;2023-07-22T10:50:39;10.25;;;5.80;;
26319;SDS011;14024;52.226;5.200;2023-07-22T10:53:06;14.43;;;6.60;;
26319;SDS011;14024;52.226;5.200;2023-07-22T10:55:56;10.75;;;4.95;;
26319;SDS011;14024;52.226;5.200;2023-07-22T10:58:20;10.30;;;5.95;;
26319;SDS011;14024;52.226;5.200;2023-07-22T11:00:46;10.32;;;5.55;;
26319;SDS011;14024;52.226;5.200;2023-07-22T11:03:14;11.70;;;5.55;;
26319;SDS011;14024;52.226;5.200;2023-07-22T11:05:50;12.57;;;5.72;;
26319;SDS011;14024;52.226;5.200;2023-07-22T11:11:18;10.75;;;5.97;;
26319;SDS011;14024;52.226;5.200;2023-07-22T11:13:44;9.95;;;6.15;;
26319;SDS011;14024;52.226;5.200;2023-07-22T11:16:11;13.88;;;6.25;;
26319;SDS011;14024;52.226;5.200;2023-07-22T11:18:38;9.23;;;6.32;;
26319;SDS011;14024;52.226;5.200;2023-07-22T11:21:09;12.93;;;7.15;;
26319;SDS011;14024;52.226;5.200;2023-07-22T11:23:35;15.43;;;7.07;;
26319;SDS011;14024;52.226;5.200;2023-07-22T11:26:02;12.65;;;6.93;;
26319;SDS011;14024;52.226;5.200;2023-07-22T11:28:30;10.50;;;6.43;;
26319;SDS011;14024;52.226;5.200;2023-07-22T11:30:56;12.57;;;6.15;;
26319;SDS011;14024;52.226;5.200;2023-07-22T11:33:23;10.63;;;6.45;;
26319;SDS011;14024;52.226;5.200;2023-07-22T11:35:49;13.02;;;6.75;;
26319;SDS011;14024;52.226;5.200;2023-07-22T11:38:17;14.07;;;6.95;;
26319;SDS011;14024;52.226;5.200;2023-07-22T11:40:43;14.15;;;7.60;;
26319;SDS011;14024;52.226;5.200;2023-07-22T11:43:09;13.15;;;7.43;;
26319;SDS011;14024;52.226;5.200;2023-07-22T11:45:37;15.70;;;7.30;;
26319;SDS011;14024;52.226;5.200;2023-07-22T11:48:08;14.65;;;7.15;;
26319;SDS011;14024;52.226;5.200;2023-07-22T11:50:35;7.78;;;6.10;;
26319;SDS011;14024;52.226;5.200;2023-07-22T11:53:02;13.70;;;6.57;;
26319;SDS011;14024;52.226;5.200;2023-07-22T11:55:28;9.85;;;5.55;;
26319;SDS011;14024;52.226;5.200;2023-07-22T11:57:57;14.77;;;6.97;;
26319;SDS011;14024;52.226;5.200;2023-07-22T12:00:23;9.30;;;6.13;;
26319;SDS011;14024;52.226;5.200;2023-07-22T12:02:49;9.63;;;5.57;;
26319;SDS011;14024;52.226;5.200;2023-07-22T12:05:22;10.45;;;6.13;;
26319;SDS011;14024;52.226;5.200;2023-07-22T12:07:48;9.73;;;6.25;;
26319;SDS011;14024;52.226;5.200;2023-07-22T12:10:15;8.75;;;5.65;;
26319;SDS011;14024;52.226;5.200;2023-07-22T12:12:45;12.65;;;5.85;;
26319;SDS011;14024;52.226;5.200;2023-07-22T12:15:13;10.80;;;5.95;;
26319;SDS011;14024;52.226;5.200;2023-07-22T12:17:53;8.40;;;5.00;;
26319;SDS011;14024;52.226;5.200;2023-07-22T12:20:25;12.43;;;5.47;;
26319;SDS011;14024;52.226;5.200;2023-07-22T12:22:51;27.23;;;5.50;;
26319;SDS011;14024;52.226;5.200;2023-07-22T12:25:17;9.00;;;4.38;;
26319;SDS011;14024;52.226;5.200;2023-07-22T12:27:44;12.07;;;4.90;;
26319;SDS011;14024;52.226;5.200;2023-07-22T12:30:10;11.40;;;4.57;;
26319;SDS011;14024;52.226;5.200;2023-07-22T12:32:37;8.23;;;4.47;;
26319;SDS011;14024;52.226;5.200;2023-07-22T12:35:03;11.70;;;4.38;;
26319;SDS011;14024;52.226;5.200;2023-07-22T12:37:29;9.52;;;4.72;;
26319;SDS011;14024;52.226;5.200;2023-07-22T12:39:55;11.55;;;5.05;;
26319;SDS011;14024;52.226;5.200;2023-07-22T12:42:22;9.48;;;3.83;;
26319;SDS011;14024;52.226;5.200;2023-07-22T12:44:48;17.50;;;4.32;;
26319;SDS011;14024;52.226;5.200;2023-07-22T12:47:14;5.15;;;3.50;;
26319;SDS011;14024;52.226;5.200;2023-07-22T12:49:40;8.40;;;4.20;;
26319;SDS011;14024;52.226;5.200;2023-07-22T12:52:06;6.70;;;3.60;;
26319;SDS011;14024;52.226;5.200;2023-07-22T12:54:37;8.40;;;3.38;;
26319;SDS011;14024;52.226;5.200;2023-07-22T12:57:03;10.43;;;3.38;;
26319;SDS011;14024;52.226;5.200;2023-07-22T12:59:30;8.85;;;3.15;;
26319;SDS011;14024;52.226;5.200;2023-07-22T13:01:56;5.05;;;2.92;;
26319;SDS011;14024;52.226;5.200;2023-07-22T13:04:23;7.55;;;2.60;;
26319;SDS011;14024;52.226;5.200;2023-07-22T13:06:50;9.60;;;3.20;;
26319;SDS011;14024;52.226;5.200;2023-07-22T13:09:17;4.53;;;2.78;;
26319;SDS011;14024;52.226;5.200;2023-07-22T13:11:43;4.50;;;2.70;;
26319;SDS011;14024;52.226;5.200;2023-07-22T13:14:09;5.38;;;2.75;;
26319;SDS011;14024;52.226;5.200;2023-07-22T13:16:35;6.85;;;2.78;;
26319;SDS011;14024;52.226;5.200;2023-07-22T13:19:01;8.05;;;2.67;;
26319;SDS011;14024;52.226;5.200;2023-07-22T13:21:28;6.40;;;2.30;;
26319;SDS011;14024;52.226;5.200;2023-07-22T13:23:54;5.35;;;2.60;;
26319;SDS011;14024;52.226;5.200;2023-07-22T13:26:21;4.85;;;2.70;;
26319;SDS011;14024;52.226;5.200;2023-07-22T13:28:47;8.85;;;2.88;;
26319;SDS011;14024;52.226;5.200;2023-07-22T13:31:13;6.65;;;2.75;;
26319;SDS011;14024;52.226;5.200;2023-07-22T13:33:39;4.45;;;3.15;;
26319;SDS011;14024;52.226;5.200;2023-07-22T13:36:06;5.97;;;3.80;;
26319;SDS011;14024;52.226;5.200;2023-07-22T13:38:32;10.52;;;4.40;;
26319;SDS011;14024;52.226;5.200;2023-07-22T13:40:58;7.07;;;3.70;;
26319;SDS011;14024;52.226;5.200;2023-07-22T13:43:24;5.13;;;4.03;;
26319;SDS011;14024;52.226;5.200;2023-07-22T13:45:50;7.00;;;4.10;;
26319;SDS011;14024;52.226;5.200;2023-07-22T13:48:16;4.70;;;3.75;;
26319;SDS011;14024;52.226;5.200;2023-07-22T13:50:42;9.48;;;3.90;;
26319;SDS011;14024;52.226;5.200;2023-07-22T13:53:08;12.10;;;5.38;;
26319;SDS011;14024;52.226;5.200;2023-07-22T13:55:34;8.63;;;3.75;;
26319;SDS011;14024;52.226;5.200;2023-07-22T13:58:00;8.57;;;4.25;;
26319;SDS011;14024;52.226;5.200;2023-07-22T14:00:26;7.30;;;3.40;;
26319;SDS011;14024;52.226;5.200;2023-07-22T14:02:52;11.43;;;3.42;;
26319;SDS011;14024;52.226;5.200;2023-07-22T14:05:18;5.65;;;3.05;;
26319;SDS011;14024;52.226;5.200;2023-07-22T14:07:44;6.25;;;3.03;;
26319;SDS011;14024;52.226;5.200;2023-07-22T14:10:10;6.10;;;3.10;;
26319;SDS011;14024;52.226;5.200;2023-07-22T14:12:36;7.00;;;3.50;;
26319;SDS011;14024;52.226;5.200;2023-07-22T14:15:03;7.05;;;3.50;;
26319;SDS011;14024;52.226;5.200;2023-07-22T14:17:29;7.50;;;3.25;;
26319;SDS011;14024;52.226;5.200;2023-07-22T14:19:57;8.05;;;3.03;;
26319;SDS011;14024;52.226;5.200;2023-07-22T14:22:23;5.82;;;2.95;;
26319;SDS011;14024;52.226;5.200;2023-07-22T14:24:49;7.07;;;2.95;;
26319;SDS011;14024;52.226;5.200;2023-07-22T14:27:15;7.47;;;2.95;;
26319;SDS011;14024;52.226;5.200;2023-07-22T14:29:41;8.88;;;2.85;;
26319;SDS011;14024;52.226;5.200;2023-07-22T14:32:07;10.98;;;3.10;;
26319;SDS011;14024;52.226;5.200;2023-07-22T14:34:34;5.47;;;3.35;;